sensor_id;sensor_type;location;lat;lon;timestamp;P1;durP1;ratioP1;P2;durP2;ratioP2
43226;SDS011;28839;52.404;9.808;2022-12-18T00:01:15;40.63;;;20.37;;
43226;SDS011;28839;52.404;9.808;2022-12-18T00:08:10;35.00;;;17.15;;
43226;SDS011;28839;52.404;9.808;2022-12-18T00:15:04;37.65;;;17.27;;
43226;SDS011;28839;52.404;9.808;2022-12-18T00:22:00;33.50;;;17.37;;
43226;SDS011;28839;52.404;9.808;2022-12-18T00:28:54;30.05;;;17.58;;
43226;SDS011;28839;52.404;9.808;2022-12-18T00:35:50;34.60;;;16.40;;
43226;SDS011;28839;52.404;9.808;2022-12-18T00:42:46;32.13;;;15.70;;
43226;SDS011;28839;52.404;9.808;2022-12-18T00:49:51;30.95;;;16.62;;
43226;SDS011;28839;52.404;9.808;2022-12-18T00:56:45;30.00;;;16.27;;
43226;SDS011;28839;52.404;9.808;2022-12-18T01:03:40;25.90;;;15.55;;
43226;SDS011;28839;52.404;9.808;2022-12-18T01:10:34;32.38;;;16.17;;
43226;SDS011;28839;52.404;9.808;2022-12-18T01:17:28;33.77;;;17.43;;
43226;SDS011;28839;52.404;9.808;2022-12-18T01:24:23;25.93;;;14.00;;
43226;SDS011;28839;52.404;9.808;2022-12-18T01:31:18;27.13;;;14.77;;
43226;SDS011;28839;52.404;9.808;2022-12-18T01:38:13;35.75;;;15.57;;
43226;SDS011;28839;52.404;9.808;2022-12-18T01:52:19;29.87;;;14.40;;
43226;SDS011;28839;52.404;9.808;2022-12-18T01:59:14;31.50;;;13.38;;
43226;SDS011;28839;52.404;9.808;2022-12-18T02:06:12;27.15;;;14.13;;
43226;SDS011;28839;52.404;9.808;2022-12-18T02:13:12;26.98;;;13.43;;
43226;SDS011;28839;52.404;9.808;2022-12-18T02:20:12;27.15;;;13.30;;
43226;SDS011;28839;52.404;9.808;2022-12-18T02:27:11;28.30;;;14.30;;
43226;SDS011;28839;52.404;9.808;2022-12-18T02:34:06;27.05;;;13.70;;
43226;SDS011;28839;52.404;9.808;2022-12-18T02:41:02;25.20;;;13.68;;
43226;SDS011;28839;52.404;9.808;2022-12-18T03:01:51;24.23;;;12.57;;
43226;SDS011;28839;52.404;9.808;2022-12-18T03:08:52;23.02;;;12.15;;
43226;SDS011;28839;52.404;9.808;2022-12-18T03:15:50;28.85;;;14.95;;
43226;SDS011;28839;52.404;9.808;2022-12-18T03:22:49;34.03;;;15.48;;
43226;SDS011;28839;52.404;9.808;2022-12-18T03:29:48;24.45;;;14.05;;
43226;SDS011;28839;52.404;9.808;2022-12-18T03:36:46;30.37;;;15.05;;
43226;SDS011;28839;52.404;9.808;2022-12-18T03:43:41;25.60;;;14.35;;
43226;SDS011;28839;52.404;9.808;2022-12-18T03:50:43;29.87;;;13.77;;
43226;SDS011;28839;52.404;9.808;2022-12-18T03:57:41;26.67;;;13.55;;
43226;SDS011;28839;52.404;9.808;2022-12-18T04:04:36;26.98;;;14.13;;
43226;SDS011;28839;52.404;9.808;2022-12-18T04:11:33;29.50;;;13.52;;
43226;SDS011;28839;52.404;9.808;2022-12-18T04:18:27;22.13;;;12.50;;
43226;SDS011;28839;52.404;9.808;2022-12-18T04:25:21;28.58;;;13.23;;
43226;SDS011;28839;52.404;9.808;2022-12-18T04:32:16;27.33;;;14.10;;
43226;SDS011;28839;52.404;9.808;2022-12-18T04:39:10;20.67;;;12.00;;
43226;SDS011;28839;52.404;9.808;2022-12-18T04:46:04;22.00;;;11.88;;
43226;SDS011;28839;52.404;9.808;2022-12-18T04:53:00;23.80;;;13.32;;
43226;SDS011;28839;52.404;9.808;2022-12-18T04:59:54;25.10;;;14.02;;
43226;SDS011;28839;52.404;9.808;2022-12-18T05:06:48;31.62;;;15.45;;
43226;SDS011;28839;52.404;9.808;2022-12-18T05:13:43;27.37;;;13.07;;
43226;SDS011;28839;52.404;9.808;2022-12-18T05:20:38;26.98;;;14.85;;
43226;SDS011;28839;52.404;9.808;2022-12-18T05:27:31;22.83;;;12.37;;
43226;SDS011;28839;52.404;9.808;2022-12-18T05:34:27;25.90;;;12.20;;
43226;SDS011;28839;52.404;9.808;2022-12-18T05:41:21;25.92;;;13.52;;
43226;SDS011;28839;52.404;9.808;2022-12-18T05:48:15;27.62;;;13.10;;
43226;SDS011;28839;52.404;9.808;2022-12-18T05:55:10;28.40;;;13.85;;
43226;SDS011;28839;52.404;9.808;2022-12-18T06:02:04;26.27;;;12.77;;
43226;SDS011;28839;52.404;9.808;2022-12-18T06:08:58;24.35;;;12.05;;
43226;SDS011;28839;52.404;9.808;2022-12-18T06:15:54;24.10;;;13.27;;
43226;SDS011;28839;52.404;9.808;2022-12-18T06:22:48;26.73;;;13.02;;
43226;SDS011;28839;52.404;9.808;2022-12-18T06:29:42;29.12;;;12.98;;
43226;SDS011;28839;52.404;9.808;2022-12-18T06:36:37;19.17;;;10.38;;
43226;SDS011;28839;52.404;9.808;2022-12-18T06:43:31;33.55;;;15.32;;
43226;SDS011;28839;52.404;9.808;2022-12-18T06:50:25;24.87;;;13.62;;
43226;SDS011;28839;52.404;9.808;2022-12-18T06:57:21;26.75;;;12.20;;
43226;SDS011;28839;52.404;9.808;2022-12-18T07:04:14;24.17;;;12.90;;
43226;SDS011;28839;52.404;9.808;2022-12-18T07:11:08;21.52;;;12.18;;
43226;SDS011;28839;52.404;9.808;2022-12-18T07:18:04;20.58;;;10.68;;
43226;SDS011;28839;52.404;9.808;2022-12-18T07:24:58;27.33;;;12.15;;
43226;SDS011;28839;52.404;9.808;2022-12-18T07:31:52;24.45;;;12.93;;
43226;SDS011;28839;52.404;9.808;2022-12-18T07:38:47;25.58;;;12.88;;
43226;SDS011;28839;52.404;9.808;2022-12-18T07:45:43;36.40;;;17.35;;
43226;SDS011;28839;52.404;9.808;2022-12-18T07:52:37;27.87;;;14.60;;
43226;SDS011;28839;52.404;9.808;2022-12-18T07:59:32;22.85;;;10.45;;
43226;SDS011;28839;52.404;9.808;2022-12-18T08:06:26;24.50;;;13.15;;
43226;SDS011;28839;52.404;9.808;2022-12-18T08:13:20;22.33;;;12.32;;
43226;SDS011;28839;52.404;9.808;2022-12-18T08:20:15;25.02;;;13.07;;
43226;SDS011;28839;52.404;9.808;2022-12-18T08:27:10;21.02;;;11.77;;
43226;SDS011;28839;52.404;9.808;2022-12-18T08:34:04;25.70;;;13.05;;
43226;SDS011;28839;52.404;9.808;2022-12-18T08:40:59;32.10;;;14.27;;
43226;SDS011;28839;52.404;9.808;2022-12-18T08:47:54;25.00;;;13.23;;
43226;SDS011;28839;52.404;9.808;2022-12-18T08:54:48;27.13;;;13.57;;
43226;SDS011;28839;52.404;9.808;2022-12-18T09:01:43;23.17;;;11.00;;
43226;SDS011;28839;52.404;9.808;2022-12-18T09:08:38;20.77;;;12.70;;
43226;SDS011;28839;52.404;9.808;2022-12-18T09:15:32;24.13;;;13.37;;
43226;SDS011;28839;52.404;9.808;2022-12-18T09:22:27;30.33;;;14.40;;
43226;SDS011;28839;52.404;9.808;2022-12-18T09:29:24;22.00;;;11.93;;
43226;SDS011;28839;52.404;9.808;2022-12-18T09:36:21;16.58;;;10.25;;
43226;SDS011;28839;52.404;9.808;2022-12-18T09:43:17;16.97;;;10.27;;
43226;SDS011;28839;52.404;9.808;2022-12-18T09:50:18;13.48;;;8.73;;
43226;SDS011;28839;52.404;9.808;2022-12-18T09:57:17;19.67;;;9.90;;
43226;SDS011;28839;52.404;9.808;2022-12-18T10:04:14;19.20;;;9.70;;
43226;SDS011;28839;52.404;9.808;2022-12-18T10:18:31;21.83;;;10.45;;
43226;SDS011;28839;52.404;9.808;2022-12-18T10:25:47;15.90;;;8.85;;
43226;SDS011;28839;52.404;9.808;2022-12-18T10:32:47;15.00;;;9.02;;
43226;SDS011;28839;52.404;9.808;2022-12-18T10:39:40;18.80;;;9.40;;
43226;SDS011;28839;52.404;9.808;2022-12-18T10:46:36;21.07;;;10.60;;
43226;SDS011;28839;52.404;9.808;2022-12-18T10:53:30;16.95;;;8.90;;
43226;SDS011;28839;52.404;9.808;2022-12-18T11:00:26;18.73;;;10.45;;
43226;SDS011;28839;52.404;9.808;2022-12-18T11:07:23;16.45;;;9.50;;
43226;SDS011;28839;52.404;9.808;2022-12-18T11:14:18;14.90;;;8.73;;
43226;SDS011;28839;52.404;9.808;2022-12-18T11:21:16;17.92;;;9.85;;
43226;SDS011;28839;52.404;9.808;2022-12-18T11:35:23;17.50;;;10.82;;
43226;SDS011;28839;52.404;9.808;2022-12-18T11:42:27;17.35;;;10.82;;
43226;SDS011;28839;52.404;9.808;2022-12-18T11:49:32;13.25;;;6.07;;
43226;SDS011;28839;52.404;9.808;2022-12-18T11:56:29;19.60;;;11.40;;
43226;SDS011;28839;52.404;9.808;2022-12-18T12:03:37;31.05;;;12.77;;
43226;SDS011;28839;52.404;9.808;2022-12-18T12:10:45;21.85;;;11.23;;
43226;SDS011;28839;52.404;9.808;2022-12-18T12:17:48;15.38;;;8.98;;
43226;SDS011;28839;52.404;9.808;2022-12-18T12:24:48;12.82;;;6.57;;
43226;SDS011;28839;52.404;9.808;2022-12-18T12:31:55;24.05;;;9.48;;
43226;SDS011;28839;52.404;9.808;2022-12-18T12:38:59;23.15;;;11.23;;
43226;SDS011;28839;52.404;9.808;2022-12-18T12:45:55;21.48;;;9.95;;
43226;SDS011;28839;52.404;9.808;2022-12-18T12:52:54;22.27;;;11.20;;
43226;SDS011;28839;52.404;9.808;2022-12-18T12:59:50;16.92;;;8.13;;
43226;SDS011;28839;52.404;9.808;2022-12-18T13:06:53;25.12;;;11.77;;
43226;SDS011;28839;52.404;9.808;2022-12-18T13:13:54;24.95;;;12.30;;
43226;SDS011;28839;52.404;9.808;2022-12-18T13:20:49;25.60;;;10.43;;
43226;SDS011;28839;52.404;9.808;2022-12-18T13:27:57;22.83;;;13.10;;
43226;SDS011;28839;52.404;9.808;2022-12-18T13:42:40;25.35;;;13.70;;
43226;SDS011;28839;52.404;9.808;2022-12-18T13:49:52;27.70;;;12.65;;
43226;SDS011;28839;52.404;9.808;2022-12-18T13:56:46;18.37;;;10.33;;
43226;SDS011;28839;52.404;9.808;2022-12-18T14:03:42;27.30;;;13.23;;
43226;SDS011;28839;52.404;9.808;2022-12-18T14:10:39;34.63;;;16.00;;
43226;SDS011;28839;52.404;9.808;2022-12-18T14:17:34;30.17;;;14.63;;
43226;SDS011;28839;52.404;9.808;2022-12-18T14:24:31;23.67;;;12.43;;
43226;SDS011;28839;52.404;9.808;2022-12-18T14:31:26;33.00;;;15.40;;
43226;SDS011;28839;52.404;9.808;2022-12-18T14:38:26;34.53;;;16.12;;
43226;SDS011;28839;52.404;9.808;2022-12-18T14:45:42;35.40;;;16.15;;
43226;SDS011;28839;52.404;9.808;2022-12-18T14:52:38;31.90;;;16.40;;
43226;SDS011;28839;52.404;9.808;2022-12-18T14:59:31;34.60;;;17.00;;
43226;SDS011;28839;52.404;9.808;2022-12-18T15:06:28;34.30;;;19.75;;
43226;SDS011;28839;52.404;9.808;2022-12-18T15:13:25;37.67;;;19.65;;
43226;SDS011;28839;52.404;9.808;2022-12-18T15:20:19;32.70;;;16.80;;
43226;SDS011;28839;52.404;9.808;2022-12-18T15:27:22;33.57;;;17.90;;
43226;SDS011;28839;52.404;9.808;2022-12-18T15:34:19;33.72;;;17.10;;
43226;SDS011;28839;52.404;9.808;2022-12-18T15:41:14;38.35;;;20.52;;
43226;SDS011;28839;52.404;9.808;2022-12-18T15:48:15;36.20;;;18.23;;
43226;SDS011;28839;52.404;9.808;2022-12-18T15:55:13;39.13;;;19.35;;
43226;SDS011;28839;52.404;9.808;2022-12-18T16:02:26;36.40;;;14.38;;
43226;SDS011;28839;52.404;9.808;2022-12-18T16:09:22;39.10;;;19.17;;
43226;SDS011;28839;52.404;9.808;2022-12-18T16:16:16;35.33;;;16.80;;
43226;SDS011;28839;52.404;9.808;2022-12-18T16:23:09;33.43;;;16.90;;
43226;SDS011;28839;52.404;9.808;2022-12-18T16:30:06;38.40;;;19.93;;
43226;SDS011;28839;52.404;9.808;2022-12-18T16:37:05;34.13;;;18.30;;
43226;SDS011;28839;52.404;9.808;2022-12-18T16:44:00;33.20;;;15.02;;
43226;SDS011;28839;52.404;9.808;2022-12-18T16:50:59;25.83;;;12.32;;
43226;SDS011;28839;52.404;9.808;2022-12-18T16:57:54;28.52;;;14.87;;
43226;SDS011;28839;52.404;9.808;2022-12-18T17:04:48;33.47;;;15.70;;
43226;SDS011;28839;52.404;9.808;2022-12-18T17:11:43;36.33;;;16.70;;
43226;SDS011;28839;52.404;9.808;2022-12-18T17:18:37;24.45;;;14.98;;
43226;SDS011;28839;52.404;9.808;2022-12-18T17:25:30;28.10;;;14.20;;
43226;SDS011;28839;52.404;9.808;2022-12-18T17:32:26;26.17;;;12.82;;
43226;SDS011;28839;52.404;9.808;2022-12-18T17:39:20;28.05;;;13.73;;
43226;SDS011;28839;52.404;9.808;2022-12-18T17:46:14;14.13;;;9.07;;
43226;SDS011;28839;52.404;9.808;2022-12-18T17:53:09;24.17;;;14.10;;
43226;SDS011;28839;52.404;9.808;2022-12-18T18:00:03;27.55;;;15.48;;
43226;SDS011;28839;52.404;9.808;2022-12-18T18:06:58;28.65;;;15.98;;
43226;SDS011;28839;52.404;9.808;2022-12-18T18:13:53;26.37;;;14.60;;
43226;SDS011;28839;52.404;9.808;2022-12-18T18:20:53;27.65;;;15.65;;
43226;SDS011;28839;52.404;9.808;2022-12-18T18:27:47;27.03;;;14.63;;
43226;SDS011;28839;52.404;9.808;2022-12-18T18:34:42;19.57;;;12.53;;
43226;SDS011;28839;52.404;9.808;2022-12-18T18:41:36;19.20;;;9.50;;
43226;SDS011;28839;52.404;9.808;2022-12-18T18:48:30;39.20;;;19.97;;
43226;SDS011;28839;52.404;9.808;2022-12-18T18:55:28;28.62;;;14.32;;
43226;SDS011;28839;52.404;9.808;2022-12-18T19:02:25;27.77;;;14.77;;
43226;SDS011;28839;52.404;9.808;2022-12-18T19:09:19;30.25;;;16.35;;
43226;SDS011;28839;52.404;9.808;2022-12-18T19:16:14;28.23;;;16.30;;
43226;SDS011;28839;52.404;9.808;2022-12-18T19:23:08;26.20;;;12.02;;
43226;SDS011;28839;52.404;9.808;2022-12-18T19:30:03;23.50;;;14.03;;
43226;SDS011;28839;52.404;9.808;2022-12-18T19:36:58;23.38;;;12.37;;
43226;SDS011;28839;52.404;9.808;2022-12-18T19:43:52;17.60;;;8.48;;
43226;SDS011;28839;52.404;9.808;2022-12-18T19:50:46;26.17;;;13.53;;
43226;SDS011;28839;52.404;9.808;2022-12-18T19:57:41;28.33;;;15.53;;
43226;SDS011;28839;52.404;9.808;2022-12-18T20:04:35;18.42;;;10.75;;
43226;SDS011;28839;52.404;9.808;2022-12-18T20:11:29;28.90;;;14.57;;
43226;SDS011;28839;52.404;9.808;2022-12-18T20:18:25;22.23;;;11.27;;
43226;SDS011;28839;52.404;9.808;2022-12-18T20:25:19;14.35;;;8.43;;
43226;SDS011;28839;52.404;9.808;2022-12-18T20:32:13;13.55;;;8.32;;
43226;SDS011;28839;52.404;9.808;2022-12-18T20:39:08;14.43;;;8.17;;
43226;SDS011;28839;52.404;9.808;2022-12-18T20:46:03;16.62;;;7.90;;
43226;SDS011;28839;52.404;9.808;2022-12-18T20:52:58;12.25;;;6.93;;
43226;SDS011;28839;52.404;9.808;2022-12-18T20:59:54;15.57;;;8.02;;
43226;SDS011;28839;52.404;9.808;2022-12-18T21:06:48;22.20;;;9.75;;
43226;SDS011;28839;52.404;9.808;2022-12-18T21:20:37;20.23;;;9.60;;
43226;SDS011;28839;52.404;9.808;2022-12-18T21:27:31;17.62;;;9.63;;
43226;SDS011;28839;52.404;9.808;2022-12-18T21:34:26;18.73;;;9.53;;
43226;SDS011;28839;52.404;9.808;2022-12-18T21:41:23;23.90;;;10.95;;
43226;SDS011;28839;52.404;9.808;2022-12-18T21:48:35;15.07;;;8.88;;
43226;SDS011;28839;52.404;9.808;2022-12-18T21:55:30;18.77;;;10.32;;
43226;SDS011;28839;52.404;9.808;2022-12-18T22:02:25;23.48;;;11.55;;
43226;SDS011;28839;52.404;9.808;2022-12-18T22:09:19;17.08;;;9.65;;
43226;SDS011;28839;52.404;9.808;2022-12-18T22:16:14;16.73;;;9.15;;
43226;SDS011;28839;52.404;9.808;2022-12-18T22:23:09;21.25;;;9.55;;
43226;SDS011;28839;52.404;9.808;2022-12-18T22:30:04;15.18;;;9.50;;
43226;SDS011;28839;52.404;9.808;2022-12-18T22:36:59;19.25;;;10.93;;
43226;SDS011;28839;52.404;9.808;2022-12-18T22:43:54;20.90;;;9.77;;
43226;SDS011;28839;52.404;9.808;2022-12-18T22:50:48;24.87;;;11.60;;
43226;SDS011;28839;52.404;9.808;2022-12-18T22:57:42;27.98;;;11.18;;
43226;SDS011;28839;52.404;9.808;2022-12-18T23:04:37;24.92;;;10.63;;
43226;SDS011;28839;52.404;9.808;2022-12-18T23:11:31;20.88;;;11.75;;
43226;SDS011;28839;52.404;9.808;2022-12-18T23:18:25;16.80;;;8.90;;
43226;SDS011;28839;52.404;9.808;2022-12-18T23:25:20;23.42;;;11.30;;
43226;SDS011;28839;52.404;9.808;2022-12-18T23:32:14;16.48;;;10.07;;
43226;SDS011;28839;52.404;9.808;2022-12-18T23:39:09;18.52;;;9.82;;
43226;SDS011;28839;52.404;9.808;2022-12-18T23:46:10;21.75;;;10.73;;
43226;SDS011;28839;52.404;9.808;2022-12-18T23:53:04;25.30;;;11.70;;
43226;SDS011;28839;52.404;9.808;2022-12-18T23:59:58;26.33;;;11.55;;
